Time;durP1;ratioP1;P1;durP2;ratioP2;P2;SDS_P1;SDS_P2;PMS_P1;PMS_P2;Temp;Humidity;BMP_temperature;BMP_pressure;BME280_temperature;BME280_humidity;BME280_pressure;Samples;Min_cycle;Max_cycle;Signal;HPM_P1;HPM_P2
2022/03/04 00:02:01;;;;;;;24.48;12.13;;;;;;;1.01;100.00;100806.81;5040816;28;20016;-65
2022/03/04 00:04:26;;;;;;;16.50;11.57;;;;;;;0.95;100.00;100806.88;5049757;28;20490;-65
2022/03/04 00:06:53;;;;;;;18.60;12.63;;;;;;;0.92;100.00;100804.28;5045014;28;20040;-65
2022/03/04 00:09:20;;;;;;;16.15;10.95;;;;;;;0.87;100.00;100816.41;5048169;28;20032;-65
2022/03/04 00:11:46;;;;;;;17.20;12.00;;;;;;;0.79;100.00;100794.88;5047771;28;20487;-65
2022/03/04 00:14:11;;;;;;;17.38;12.52;;;;;;;0.83;100.00;100809.50;5049173;28;20180;-65
2022/03/04 00:16:36;;;;;;;19.83;12.95;;;;;;;0.83;100.00;100809.50;5051134;28;20025;-65
2022/03/04 00:19:09;;;;;;;17.05;12.15;;;;;;;0.83;100.00;100817.28;5050990;28;20470;-65
2022/03/04 00:21:41;;;;;;;16.17;11.70;;;;;;;0.79;100.00;100812.09;5050782;28;20511;-65
2022/03/04 00:24:07;;;;;;;19.90;12.52;;;;;;;0.77;100.00;100804.38;5049455;28;20115;-65
2022/03/04 00:26:32;;;;;;;18.40;12.30;;;;;;;0.75;100.00;100821.59;5051038;28;20070;-65
2022/03/04 00:28:57;;;;;;;16.60;11.85;;;;;;;0.69;100.00;100821.63;5049813;28;20025;-65
2022/03/04 00:31:23;;;;;;;24.88;12.43;;;;;;;0.63;100.00;100819.06;5051121;28;20029;-65
2022/03/04 00:33:49;;;;;;;16.35;10.88;;;;;;;0.49;100.00;100808.78;5050091;28;20028;-65
2022/03/04 00:36:14;;;;;;;17.13;12.05;;;;;;;0.51;100.00;100819.09;5049529;28;20056;-65
2022/03/04 00:38:40;;;;;;;20.92;12.40;;;;;;;0.46;100.00;100818.25;5050480;28;20530;-65
2022/03/04 00:41:05;;;;;;;17.60;11.07;;;;;;;0.43;100.00;100815.69;5050096;28;20037;-65
2022/03/04 00:43:31;;;;;;;16.42;10.90;;;;;;;0.43;100.00;100813.09;5050043;28;20108;-65
2022/03/04 00:45:56;;;;;;;16.73;12.18;;;;;;;0.41;100.00;100819.97;5050432;28;20376;-65
2022/03/04 00:48:21;;;;;;;16.20;11.15;;;;;;;0.35;100.00;100817.41;5049854;28;20087;-65
2022/03/04 00:50:47;;;;;;;18.65;12.05;;;;;;;0.15;100.00;100794.19;5050206;28;20394;-65
2022/03/04 00:53:12;;;;;;;17.30;12.00;;;;;;;0.22;100.00;100818.31;5045715;28;20036;-65
2022/03/04 00:55:38;;;;;;;17.50;11.18;;;;;;;0.07;100.00;100811.41;5050090;28;20031;-65
2022/03/04 00:58:07;;;;;;;20.00;11.48;;;;;;;0.08;100.00;100822.63;5052932;28;20025;-65
2022/03/04 01:00:34;;;;;;;22.52;11.73;;;;;;;0.05;100.00;100825.22;5055351;28;20506;-65
2022/03/04 01:03:00;;;;;;;16.58;11.55;;;;;;;-0.01;100.00;100819.19;5053059;28;20050;-64
2022/03/04 01:05:26;;;;;;;17.02;11.52;;;;;;;-0.04;100.00;100821.78;5043505;28;20402;-65
2022/03/04 01:07:51;;;;;;;16.10;11.27;;;;;;;-0.05;100.00;100822.66;5053682;28;20031;-65
2022/03/04 01:10:16;;;;;;;22.42;11.45;;;;;;;-0.06;100.00;100827.78;5054002;28;20033;-65
2022/03/04 01:12:42;;;;;;;21.95;12.45;;;;;;;-0.07;100.00;100826.94;5054025;28;20051;-64
2022/03/04 01:15:08;;;;;;;17.92;11.20;;;;;;;-0.12;100.00;100823.50;5055242;28;20025;-65
2022/03/04 01:17:33;;;;;;;19.25;11.98;;;;;;;-0.19;100.00;100805.44;5054326;28;20630;-65
2022/03/04 01:19:58;;;;;;;19.00;11.73;;;;;;;-0.13;100.00;100815.75;5054144;28;20021;-65
2022/03/04 01:22:24;;;;;;;13.77;10.35;;;;;;;-0.16;100.00;100821.78;5052696;28;20020;-65
2022/03/04 01:24:49;;;;;;;18.45;12.25;;;;;;;-0.17;100.00;100820.03;5053000;28;20120;-65
2022/03/04 01:27:14;;;;;;;16.85;10.30;;;;;;;-0.20;100.00;100814.88;5055261;28;20029;-65
2022/03/04 01:29:40;;;;;;;16.17;11.25;;;;;;;-0.21;100.00;100818.34;5054698;28;20017;-65
2022/03/04 01:32:06;;;;;;;18.15;10.98;;;;;;;-0.23;100.00;100820.06;5054936;28;20075;-64
2022/03/04 01:34:31;;;;;;;21.02;11.02;;;;;;;-0.23;100.00;100820.06;5053219;28;20060;-64
2022/03/04 01:36:56;;;;;;;17.48;10.50;;;;;;;-0.33;100.00;100818.31;5053342;28;20029;-65
2022/03/04 01:39:22;;;;;;;19.95;10.75;;;;;;;-0.37;100.00;100821.75;5053693;28;20029;-65
2022/03/04 01:41:47;;;;;;;16.30;11.30;;;;;;;-0.43;100.00;100821.75;5054917;28;20040;-65
2022/03/04 01:44:13;;;;;;;16.30;11.40;;;;;;;-0.52;100.00;100814.03;5053824;28;20036;-65
2022/03/04 01:46:38;;;;;;;17.52;10.88;;;;;;;-0.64;100.00;100822.59;5053147;28;20025;-65
2022/03/04 01:49:03;;;;;;;14.75;10.88;;;;;;;-0.75;100.00;100824.31;5053959;28;20055;-65
2022/03/04 01:51:29;;;;;;;17.48;11.32;;;;;;;-0.87;100.00;100818.22;5053698;28;20040;-65
2022/03/04 01:53:54;;;;;;;19.80;11.05;;;;;;;-0.94;100.00;100817.34;5054597;28;20025;-66
2022/03/04 01:56:20;;;;;;;16.98;12.35;;;;;;;-1.04;100.00;100826.78;5054800;28;20112;-65
2022/03/04 01:58:45;;;;;;;18.80;11.88;;;;;;;-1.13;100.00;100816.44;5054698;28;20075;-64
2022/03/04 02:01:11;;;;;;;17.77;11.00;;;;;;;-1.21;100.00;100814.69;5054798;28;20024;-65
2022/03/04 02:03:37;;;;;;;17.35;11.70;;;;;;;-1.23;100.00;100819.84;5052188;28;20439;-65
2022/03/04 02:06:02;;;;;;;19.38;12.30;;;;;;;-1.28;100.00;100820.66;5052929;28;20033;-64
2022/03/04 02:08:28;;;;;;;17.73;12.45;;;;;;;-1.33;100.00;100828.38;5047357;28;20064;-65
2022/03/04 02:10:54;;;;;;;19.40;12.80;;;;;;;-1.39;100.00;100823.22;5048527;28;20032;-65
2022/03/04 02:13:19;;;;;;;16.15;11.43;;;;;;;-1.48;100.00;100824.84;5041339;28;20866;-65
2022/03/04 02:15:45;;;;;;;16.25;11.48;;;;;;;-1.64;100.00;100808.47;5032874;28;20044;-65
2022/03/04 02:18:15;;;;;;;19.55;12.13;;;;;;;-1.65;100.00;100815.31;5032911;28;20495;-65
2022/03/04 02:20:44;;;;;;;17.92;11.90;;;;;;;-1.75;100.00;100813.53;5029650;28;20116;-65
2022/03/04 02:23:12;;;;;;;21.17;12.85;;;;;;;-1.81;100.00;100817.81;5032574;28;20361;-64
2022/03/04 02:25:40;;;;;;;19.35;12.57;;;;;;;-1.89;100.00;100814.34;5048915;28;20033;-65
2022/03/04 02:28:05;;;;;;;20.35;13.07;;;;;;;-1.93;100.00;100812.59;5053357;28;20025;-65
2022/03/04 02:30:31;;;;;;;19.40;12.23;;;;;;;-1.97;100.00;100805.69;5053578;28;20368;-64
2022/03/04 02:32:56;;;;;;;20.27;13.15;;;;;;;-2.10;100.00;100789.31;5052498;28;20032;-65
2022/03/04 02:35:21;;;;;;;17.42;11.45;;;;;;;-2.08;100.00;100803.03;5046599;28;20067;-65
2022/03/04 02:37:47;;;;;;;19.40;13.25;;;;;;;-2.13;100.00;100805.56;5049134;28;20040;-64
2022/03/04 02:40:13;;;;;;;19.45;11.90;;;;;;;-2.18;100.00;100796.09;5052020;28;20475;-64
2022/03/04 02:42:39;;;;;;;18.75;13.05;;;;;;;-2.19;100.00;100796.94;5052441;28;20044;-64
2022/03/04 02:45:05;;;;;;;19.58;12.60;;;;;;;-2.18;100.00;100796.97;5053240;28;20434;-65
2022/03/04 02:47:30;;;;;;;16.63;11.88;;;;;;;-2.21;100.00;100794.38;5053677;28;20051;-64
2022/03/04 02:49:55;;;;;;;23.02;13.85;;;;;;;-2.27;100.00;100790.88;5052940;28;20036;-65
2022/03/04 02:52:21;;;;;;;18.75;13.02;;;;;;;-2.20;100.00;100797.81;5052941;28;20078;-64
2022/03/04 02:54:46;;;;;;;21.77;13.07;;;;;;;-2.18;100.00;100794.38;5053579;28;20108;-64
2022/03/04 02:57:11;;;;;;;20.95;13.63;;;;;;;-2.15;100.00;100801.25;5048883;28;20041;-64
2022/03/04 02:59:37;;;;;;;25.02;13.63;;;;;;;-2.13;100.00;100805.56;5053179;28;20027;-64
2022/03/04 03:02:02;;;;;;;17.27;12.15;;;;;;;-2.10;100.00;100797.03;5052877;28;20376;-64
2022/03/04 03:04:28;;;;;;;19.48;13.00;;;;;;;-2.08;100.00;100805.59;5050556;28;20045;-64
2022/03/04 03:06:53;;;;;;;19.52;13.00;;;;;;;-2.14;100.00;100793.56;5051466;28;20028;-64
2022/03/04 03:09:19;;;;;;;18.02;12.13;;;;;;;-2.03;100.00;100800.50;5050701;28;20107;-64
2022/03/04 03:11:44;;;;;;;22.25;13.70;;;;;;;-2.02;100.00;100807.34;5050943;28;20813;-64
2022/03/04 03:14:09;;;;;;;19.27;12.88;;;;;;;-2.00;100.00;100805.66;5051396;28;20033;-64
2022/03/04 03:16:35;;;;;;;21.08;13.95;;;;;;;-1.99;100.00;100813.38;5052315;28;20021;-64
2022/03/04 03:19:00;;;;;;;18.50;12.70;;;;;;;-1.94;100.00;100818.56;5050823;28;20523;-64
2022/03/04 03:21:25;;;;;;;22.13;15.00;;;;;;;-1.83;100.00;100819.53;5050973;28;20025;-64
2022/03/04 03:23:51;;;;;;;22.30;14.02;;;;;;;-1.73;100.00;100816.16;5051061;28;20047;-64
2022/03/04 03:26:16;;;;;;;21.27;13.38;;;;;;;-1.67;100.00;100817.03;5050358;28;20790;-65
2022/03/04 03:28:41;;;;;;;22.60;13.75;;;;;;;-1.65;100.00;100804.16;5051954;28;20033;-64
2022/03/04 03:31:07;;;;;;;19.15;13.00;;;;;;;-1.57;100.00;100817.94;5049279;28;20033;-64
2022/03/04 03:33:32;;;;;;;16.83;12.32;;;;;;;-1.53;100.00;100809.41;5051875;28;20475;-64
2022/03/04 03:35:58;;;;;;;27.38;13.20;;;;;;;-1.50;100.00;100806.84;5051797;28;20029;-64
2022/03/04 03:38:24;;;;;;;22.30;14.25;;;;;;;-1.45;100.00;100812.84;5047482;28;20541;-64
2022/03/04 03:40:49;;;;;;;18.17;12.52;;;;;;;-1.43;100.00;100812.88;5052185;28;20389;-64
2022/03/04 03:43:15;;;;;;;17.42;12.80;;;;;;;-1.49;100.00;100803.41;5051556;28;20051;-64
2022/03/04 03:45:40;;;;;;;17.08;12.80;;;;;;;-1.45;100.00;100806.88;5052498;28;20058;-64
2022/03/04 03:48:05;;;;;;;19.23;12.90;;;;;;;-1.42;100.00;100807.72;5052122;28;20025;-64
2022/03/04 03:50:31;;;;;;;20.10;13.32;;;;;;;-1.44;100.00;100812.00;5050850;28;20032;-64
2022/03/04 03:52:56;;;;;;;26.38;14.02;;;;;;;-1.44;100.00;100806.84;5050676;28;20502;-64
2022/03/04 03:55:22;;;;;;;24.50;14.20;;;;;;;-1.48;100.00;100797.38;5046380;28;20113;-64
2022/03/04 03:57:48;;;;;;;16.83;12.15;;;;;;;-1.39;100.00;100812.91;5051164;28;20037;-64
2022/03/04 04:00:14;;;;;;;20.73;12.50;;;;;;;-1.39;100.00;100812.03;5051509;28;20036;-64
2022/03/04 04:02:41;;;;;;;19.30;12.02;;;;;;;-1.43;100.00;100798.28;5051378;28;20387;-64
2022/03/04 04:05:10;;;;;;;19.55;13.38;;;;;;;-1.40;100.00;100812.88;5050306;28;20032;-64
2022/03/04 04:07:35;;;;;;;21.83;12.85;;;;;;;-1.45;100.00;100823.16;5051045;28;20103;-64
2022/03/04 04:10:01;;;;;;;21.50;14.40;;;;;;;-1.51;100.00;100817.13;5049618;28;20102;-64
2022/03/04 04:12:26;;;;;;;21.67;13.43;;;;;;;-1.61;100.00;100808.47;5049447;28;20032;-64
2022/03/04 04:14:51;;;;;;;20.38;13.60;;;;;;;-1.58;100.00;100816.22;5045814;28;20391;-64
2022/03/04 04:17:17;;;;;;;22.45;14.57;;;;;;;-1.59;100.00;100814.53;5052019;28;20060;-64
2022/03/04 04:19:42;;;;;;;22.20;14.02;;;;;;;-1.58;100.00;100822.25;5051653;28;20021;-64
2022/03/04 04:22:07;;;;;;;20.40;12.23;;;;;;;-1.62;100.00;100819.63;5051303;28;20036;-64
2022/03/04 04:24:33;;;;;;;19.30;13.05;;;;;;;-1.67;100.00;100818.75;5050850;28;20476;-64
2022/03/04 04:26:58;;;;;;;19.15;13.20;;;;;;;-1.70;100.00;100818.75;5051357;28;20116;-64
2022/03/04 04:29:23;;;;;;;20.08;12.55;;;;;;;-1.74;100.00;100820.44;5050946;28;20087;-64
2022/03/04 04:31:49;;;;;;;23.73;13.57;;;;;;;-1.79;100.00;100826.41;5050047;28;20436;-64
2022/03/04 04:34:14;;;;;;;18.73;12.15;;;;;;;-1.80;100.00;100832.41;5049287;28;20025;-64
2022/03/04 04:36:39;;;;;;;18.35;12.10;;;;;;;-1.80;100.00;100835.84;5050410;28;20468;-64
2022/03/04 04:39:05;;;;;;;25.00;13.70;;;;;;;-1.83;100.00;100834.97;5051705;28;20032;-64
2022/03/04 04:41:30;;;;;;;20.58;13.45;;;;;;;-1.85;100.00;100837.50;5050644;28;20012;-64
2022/03/04 04:43:56;;;;;;;23.70;13.63;;;;;;;-1.81;100.00;100844.41;5048992;28;20016;-64
2022/03/04 04:46:21;;;;;;;19.90;13.07;;;;;;;-1.81;100.00;100843.56;5051368;28;20052;-64
2022/03/04 04:48:47;;;;;;;18.67;12.90;;;;;;;-1.85;100.00;100837.50;5050792;28;20071;-64
2022/03/04 04:51:12;;;;;;;21.33;14.55;;;;;;;-1.84;100.00;100843.53;5048670;28;20037;-65
2022/03/04 04:53:38;;;;;;;19.33;13.68;;;;;;;-1.90;100.00;100836.63;5050584;28;20025;-64
2022/03/04 04:56:04;;;;;;;21.77;13.50;;;;;;;-1.89;100.00;100840.06;5050936;28;20029;-64
2022/03/04 04:58:29;;;;;;;21.23;12.27;;;;;;;-1.89;100.00;100847.81;5050589;28;20467;-64
2022/03/04 05:00:54;;;;;;;20.00;13.60;;;;;;;-1.94;100.00;100840.03;5052471;28;20025;-65
2022/03/04 05:03:24;;;;;;;23.83;13.45;;;;;;;-1.95;100.00;100832.28;5050837;28;20021;-64
2022/03/04 05:05:50;;;;;;;20.08;13.25;;;;;;;-1.91;100.00;100849.47;5037274;28;20965;-64
2022/03/04 05:08:16;;;;;;;19.55;13.90;;;;;;;-1.92;100.00;100850.31;5050763;28;20025;-64
2022/03/04 05:10:42;;;;;;;20.80;14.25;;;;;;;-1.96;100.00;100844.28;5049877;28;20487;-65
2022/03/04 05:13:07;;;;;;;22.42;13.27;;;;;;;-1.96;100.00;100844.28;5050582;28;20047;-64
2022/03/04 05:15:33;;;;;;;20.00;13.75;;;;;;;-2.01;100.00;100839.97;5050050;28;20183;-64
2022/03/04 05:17:58;;;;;;;20.33;12.93;;;;;;;-2.02;100.00;100848.53;5050295;28;20033;-64
2022/03/04 05:20:23;;;;;;;23.75;14.43;;;;;;;-2.08;100.00;100850.22;5050568;28;20119;-64
2022/03/04 05:22:49;;;;;;;19.13;13.55;;;;;;;-2.11;100.00;100850.19;5050813;28;20025;-64
2022/03/04 05:25:14;;;;;;;21.63;12.98;;;;;;;-2.26;100.00;100834.63;5050473;28;20024;-64
2022/03/04 05:27:40;;;;;;;20.75;14.05;;;;;;;-2.24;100.00;100858.66;5051745;28;20025;-64
2022/03/04 05:30:06;;;;;;;21.85;12.98;;;;;;;-2.27;100.00;100866.38;5050382;28;20094;-64
2022/03/04 05:32:31;;;;;;;22.88;13.85;;;;;;;-2.33;100.00;100863.72;5049260;28;20039;-64
2022/03/04 05:34:57;;;;;;;21.38;14.30;;;;;;;-2.42;100.00;100863.63;5050271;28;20379;-64
2022/03/04 05:37:22;;;;;;;19.77;13.52;;;;;;;-2.44;100.00;100865.34;5049719;28;20029;-64
2022/03/04 05:39:48;;;;;;;18.77;12.77;;;;;;;-2.51;100.00;100863.56;5051290;28;20024;-64
2022/03/04 05:42:13;;;;;;;20.58;13.63;;;;;;;-2.55;100.00;100866.94;5051383;28;20029;-64
2022/03/04 05:44:38;;;;;;;23.40;13.73;;;;;;;-2.52;100.00;100866.97;5055381;28;20025;-64
2022/03/04 05:47:04;;;;;;;22.35;14.45;;;;;;;-2.58;100.00;100877.19;5054172;28;20025;-65
2022/03/04 05:49:29;;;;;;;24.45;13.77;;;;;;;-2.68;100.00;100870.22;5055397;28;20078;-64
2022/03/04 05:51:54;;;;;;;23.27;13.50;;;;;;;-2.72;100.00;100884.75;5051726;28;20025;-64
2022/03/04 05:54:20;;;;;;;24.70;13.85;;;;;;;-2.82;100.00;100872.66;5021872;28;20356;-64
2022/03/04 05:56:45;;;;;;;22.85;14.60;;;;;;;-2.87;100.00;100881.16;5055243;28;20052;-64
2022/03/04 05:59:11;;;;;;;24.10;14.98;;;;;;;-2.91;100.00;100887.97;5055413;28;20471;-64
2022/03/04 06:01:36;;;;;;;26.55;14.68;;;;;;;-2.97;100.00;100892.19;5055506;28;20096;-64
2022/03/04 06:04:01;;;;;;;26.00;14.35;;;;;;;-3.00;100.00;100881.84;5045608;28;20024;-64
2022/03/04 06:06:27;;;;;;;23.08;13.55;;;;;;;-3.04;100.00;100885.25;5052718;28;20079;-64
2022/03/04 06:08:52;;;;;;;25.13;15.20;;;;;;;-3.05;100.00;100889.50;5055536;28;20056;-64
2022/03/04 06:11:19;;;;;;;23.27;14.35;;;;;;;-3.05;100.00;100888.66;5055479;28;20048;-64
2022/03/04 06:13:45;;;;;;;20.40;14.25;;;;;;;-3.11;100.00;100884.31;5055501;28;20029;-64
2022/03/04 06:16:10;;;;;;;22.30;13.60;;;;;;;-3.02;100.00;100891.25;5055186;28;20024;-64
2022/03/04 06:18:36;;;;;;;21.05;13.95;;;;;;;-2.99;100.00;100893.84;5053973;28;20032;-64
2022/03/04 06:21:01;;;;;;;24.52;15.77;;;;;;;-3.04;100.00;100892.94;5054104;28;20029;-64
2022/03/04 06:23:27;;;;;;;26.73;15.82;;;;;;;-3.05;100.00;100897.22;5054672;28;20094;-64
2022/03/04 06:25:55;;;;;;;20.92;13.77;;;;;;;-3.01;100.00;100905.84;5054803;28;20064;-65
2022/03/04 06:28:21;;;;;;;21.35;14.15;;;;;;;-2.99;100.00;100905.00;5055184;28;20017;-64
2022/03/04 06:30:46;;;;;;;22.13;14.00;;;;;;;-3.02;100.00;100904.09;5054882;28;20368;-64
2022/03/04 06:33:30;;;;;;;22.38;15.45;;;;;;;-3.05;100.00;100906.63;5054883;28;20025;-64
2022/03/04 06:35:56;;;;;;;26.88;14.65;;;;;;;-3.05;100.00;100909.19;5051639;28;20033;-64
2022/03/04 06:38:21;;;;;;;23.52;13.85;;;;;;;-3.05;100.00;100904.06;5051856;28;20037;-64
2022/03/04 06:40:48;;;;;;;22.23;14.32;;;;;;;-3.03;100.00;100917.78;5054753;28;20028;-64
2022/03/04 06:43:14;;;;;;;21.45;14.98;;;;;;;-3.03;100.00;100916.06;5053267;28;20067;-64
2022/03/04 06:45:44;;;;;;;21.77;14.15;;;;;;;-3.06;100.00;100902.31;5079096;28;20105;-64
2022/03/04 06:48:11;;;;;;;27.77;16.13;;;;;;;-2.94;100.00;100921.31;5022648;28;20017;-65
2022/03/04 06:50:37;;;;;;;22.98;14.65;;;;;;;-2.88;100.00;100918.00;5012234;28;20146;-65
2022/03/04 06:53:03;;;;;;;24.92;15.90;;;;;;;-2.81;100.00;100915.53;5011993;28;20815;-65
2022/03/04 06:55:28;;;;;;;24.70;16.95;;;;;;;-2.77;100.00;100924.97;5010110;28;20028;-64
2022/03/04 06:57:55;;;;;;;20.13;14.88;;;;;;;-2.69;100.00;100925.06;5011130;28;20024;-64
2022/03/04 07:00:21;;;;;;;28.95;15.50;;;;;;;-2.62;100.00;100929.44;5010684;28;20079;-64
2022/03/04 07:02:47;;;;;;;21.05;14.35;;;;;;;-2.61;100.00;100918.31;5010795;28;20024;-65
2022/03/04 07:05:14;;;;;;;21.88;15.15;;;;;;;-2.43;100.00;100933.94;5010772;28;20029;-65
2022/03/04 07:07:39;;;;;;;22.67;15.15;;;;;;;-2.32;100.00;100929.78;5012141;28;20075;-65
2022/03/04 07:10:05;;;;;;;25.95;16.25;;;;;;;-2.21;100.00;100935.91;5010172;28;20862;-65
2022/03/04 07:12:31;;;;;;;21.30;14.02;;;;;;;-2.13;100.00;100931.66;5008961;28;20040;-64
2022/03/04 07:14:56;;;;;;;25.30;15.05;;;;;;;-2.04;100.00;100937.75;5008147;28;20064;-64
2022/03/04 07:17:21;;;;;;;21.83;14.45;;;;;;;-2.03;100.00;100934.34;5008680;28;20826;-65
2022/03/04 07:19:47;;;;;;;20.42;14.85;;;;;;;-1.95;100.00;100937.84;5009246;28;20837;-64
2022/03/04 07:22:12;;;;;;;20.98;14.85;;;;;;;-1.91;100.00;100939.59;5007550;28;20048;-63
2022/03/04 07:24:38;;;;;;;22.35;13.93;;;;;;;-1.89;100.00;100941.31;5007721;28;20028;-63
2022/03/04 07:27:03;;;;;;;24.13;15.35;;;;;;;-1.85;100.00;100949.94;5006999;28;20032;-64
2022/03/04 07:29:29;;;;;;;26.95;15.13;;;;;;;-1.87;100.00;100925.91;5006227;28;20017;-63
2022/03/04 07:31:55;;;;;;;25.65;14.85;;;;;;;-1.64;100.00;100960.44;5008283;28;20078;-63
2022/03/04 07:34:21;;;;;;;24.67;14.75;;;;;;;-1.57;100.00;100951.91;5009848;28;20032;-64
2022/03/04 07:36:46;;;;;;;24.08;16.15;;;;;;;-1.42;100.00;100952.00;5008692;28;20045;-63
2022/03/04 07:39:12;;;;;;;23.55;15.02;;;;;;;-1.29;100.00;100959.00;5012992;28;20040;-63
2022/03/04 07:41:38;;;;;;;23.17;13.93;;;;;;;-1.12;100.00;100966.84;5019564;28;20718;-63
2022/03/04 07:44:04;;;;;;;23.60;15.23;;;;;;;-1.05;100.00;100951.38;5016342;28;20114;-63
2022/03/04 07:46:29;;;;;;;22.38;14.63;;;;;;;-1.15;100.00;100910.94;5010819;28;20029;-63
2022/03/04 07:48:54;;;;;;;21.35;15.20;;;;;;;-0.76;100.00;100956.72;5009408;28;20127;-64
2022/03/04 07:51:20;;;;;;;21.13;14.55;;;;;;;-0.65;100.00;100957.63;5006078;28;20017;-64
2022/03/04 07:53:45;;;;;;;20.35;14.77;;;;;;;-0.54;100.00;100952.47;5011191;28;20024;-64
2022/03/04 07:56:10;;;;;;;19.15;14.05;;;;;;;-0.44;100.00;100946.50;5011171;28;20075;-63
2022/03/04 07:58:36;;;;;;;25.92;15.00;;;;;;;-0.35;100.00;100943.09;5013948;28;20897;-64
2022/03/04 08:01:02;;;;;;;20.42;14.07;;;;;;;-0.25;100.00;100953.44;5016749;28;20079;-64
2022/03/04 08:03:27;;;;;;;20.42;14.07;;;;;;;-0.15;100.00;100960.34;5010291;28;20931;-64
2022/03/04 08:05:53;;;;;;;22.88;15.55;;;;;;;-0.08;100.00;100946.59;5007826;28;20028;-64
2022/03/04 08:08:18;;;;;;;21.05;15.05;;;;;;;0.09;100.00;100956.09;5005860;28;20019;-64
2022/03/04 08:10:43;;;;;;;23.33;15.50;;;;;;;0.22;100.00;100968.16;5008153;28;20017;-64
2022/03/04 08:13:09;;;;;;;20.85;14.25;;;;;;;0.33;100.00;100962.16;5006798;28;20032;-63
2022/03/04 08:15:34;;;;;;;22.17;14.35;;;;;;;0.46;100.00;100952.66;5007537;28;20090;-65
2022/03/04 08:18:00;;;;;;;21.13;14.10;;;;;;;0.62;100.00;100954.38;5006395;28;20935;-64
2022/03/04 08:20:26;;;;;;;22.55;13.77;;;;;;;0.69;100.00;100956.09;5006502;28;20029;-63
2022/03/04 08:22:53;;;;;;;20.90;13.20;;;;;;;0.82;100.00;100964.69;5008810;28;20952;-63
2022/03/04 08:25:18;;;;;;;24.85;14.70;;;;;;;0.92;100.00;100964.66;5007028;28;20086;-63
2022/03/04 08:27:44;;;;;;;22.77;13.88;;;;;;;1.06;100.00;100966.34;5008092;28;20812;-65
2022/03/04 08:30:11;;;;;;;21.52;13.73;;;;;;;1.03;100.00;100952.56;5007895;28;20032;-65
2022/03/04 08:32:37;;;;;;;21.00;13.02;;;;;;;1.19;100.00;100965.44;5008078;28;20809;-66
2022/03/04 08:35:03;;;;;;;22.48;13.32;;;;;;;1.21;100.00;100962.00;5007222;28;20036;-65
2022/03/04 08:37:29;;;;;;;23.63;13.68;;;;;;;1.36;100.00;100976.63;5006890;28;20051;-65
2022/03/04 08:39:55;;;;;;;22.90;14.15;;;;;;;1.49;100.00;100980.88;5012445;28;20812;-65
2022/03/04 08:42:20;;;;;;;22.95;14.23;;;;;;;1.58;100.00;100975.69;5015842;28;20824;-65
2022/03/04 08:44:45;;;;;;;27.02;16.05;;;;;;;1.78;100.00;100989.41;5014691;28;20841;-66
2022/03/04 08:47:11;;;;;;;23.63;13.43;;;;;;;1.92;100.00;101000.56;5016881;28;20811;-65
2022/03/04 08:49:37;;;;;;;32.47;13.85;;;;;;;2.08;100.00;100995.25;5016190;28;20025;-65
2022/03/04 08:52:02;;;;;;;23.92;14.07;;;;;;;2.14;100.00;101001.28;5020336;28;20037;-65
2022/03/04 08:54:28;;;;;;;24.63;13.32;;;;;;;2.18;100.00;101004.69;5020176;28;20029;-65
2022/03/04 08:56:53;;;;;;;22.00;13.15;;;;;;;2.25;100.00;101003.78;5014456;28;20025;-65
2022/03/04 08:59:19;;;;;;;21.40;13.73;;;;;;;2.29;100.00;101001.19;5016371;28;20066;-65
2022/03/04 09:01:44;;;;;;;19.60;13.60;;;;;;;2.33;100.00;100996.84;5017206;28;20049;-65
2022/03/04 09:04:14;;;;;;;21.35;13.40;;;;;;;2.48;100.00;101007.09;5014769;28;20398;-65
2022/03/04 09:06:39;;;;;;;26.35;13.73;;;;;;;2.54;100.00;101010.50;5014168;28;20110;-65
2022/03/04 09:09:05;;;;;;;23.45;13.38;;;;;;;2.60;100.00;101001.81;5012678;28;20028;-65
2022/03/04 09:11:30;;;;;;;20.88;13.05;;;;;;;2.72;100.00;101011.22;5013045;28;20064;-65
2022/03/04 09:13:56;;;;;;;19.05;13.10;;;;;;;2.78;100.00;101009.44;5014281;28;20028;-65
2022/03/04 09:16:21;;;;;;;17.80;12.35;;;;;;;2.88;100.00;101003.28;5015025;28;20728;-65
2022/03/04 09:18:47;;;;;;;25.30;13.38;;;;;;;2.98;100.00;101004.06;5016419;28;20029;-65
2022/03/04 09:21:12;;;;;;;24.10;14.07;;;;;;;3.05;100.00;101003.13;5017697;28;20025;-66
2022/03/04 09:23:38;;;;;;;22.33;13.20;;;;;;;3.18;100.00;101007.31;5015403;28;20467;-64
2022/03/04 09:26:03;;;;;;;19.80;12.35;;;;;;;3.06;100.00;100979.75;5015874;28;20032;-64
2022/03/04 09:28:30;;;;;;;22.83;13.52;;;;;;;3.33;100.00;101003.69;5013405;28;20932;-64
2022/03/04 09:30:55;;;;;;;20.02;13.60;;;;;;;3.44;100.00;101010.50;5015926;28;20086;-64
2022/03/04 09:33:21;;;;;;;20.60;13.13;;;;;;;3.55;100.00;101007.75;5014431;28;20531;-64
2022/03/04 09:35:46;;;;;;;18.33;13.07;;;;;;;3.63;100.00;101010.28;5011494;28;20868;-64
2022/03/04 09:38:12;;;;;;;19.67;13.02;;;;;;;3.73;100.00;101006.69;5013915;28;20029;-64
2022/03/04 09:40:38;;;;;;;22.98;13.00;;;;;;;3.82;100.00;101004.81;5012868;28;20021;-63
2022/03/04 09:43:07;;;;;;;24.17;12.63;;;;;;;3.94;100.00;101001.22;5015644;28;20032;-64
2022/03/04 09:45:33;;;;;;;21.45;12.38;;;;;;;3.97;100.00;100998.56;5017229;28;20033;-64
2022/03/04 09:48:03;;;;;;;17.45;12.30;;;;;;;4.04;100.00;101002.81;5017664;28;20020;-64
2022/03/04 09:50:30;;;;;;;19.92;12.23;;;;;;;4.12;100.00;101001.81;5018630;28;20044;-64
2022/03/04 09:52:56;;;;;;;21.48;13.50;;;;;;;4.20;100.00;100999.09;5016700;28;20055;-64
2022/03/04 09:55:21;;;;;;;22.65;13.23;;;;;;;4.27;100.00;101005.94;5013898;28;20021;-65
2022/03/04 09:57:47;;;;;;;19.27;12.13;;;;;;;4.35;100.00;100995.41;5017884;28;20044;-65
2022/03/04 10:00:13;;;;;;;21.08;12.70;;;;;;;4.45;100.00;101004.81;5020615;28;20029;-65
2022/03/04 10:02:39;;;;;;;20.70;12.65;;;;;;;4.58;100.00;101003.72;5019984;28;20078;-65
2022/03/04 10:05:05;;;;;;;21.48;12.68;;;;;;;4.65;100.00;101007.94;5016184;28;20033;-66
2022/03/04 10:07:45;;;;;;;21.75;12.88;;;;;;;4.71;100.00;101006.97;5013469;28;20029;-65
2022/03/04 10:10:16;;;;;;;20.33;12.38;;;;;;;4.81;100.00;100998.13;5014540;28;20033;-65
2022/03/04 10:12:56;;;;;;;20.33;13.38;;;;;;;4.92;100.00;100996.22;5014518;28;20025;-65
2022/03/04 10:15:26;;;;;;;21.70;12.57;;;;;;;5.02;100.00;100997.75;5023621;28;20025;-66
2022/03/04 10:18:05;;;;;;;15.27;10.82;;;;;;;5.08;100.00;101002.84;5020720;28;20028;-66
2022/03/04 10:20:32;;;;;;;25.52;12.55;;;;;;;5.15;100.00;100989.69;5016778;28;20127;-66
2022/03/04 10:23:17;;;;;;;26.75;12.48;;;;;;;5.29;100.00;100991.19;5020676;28;20911;-66
2022/03/04 10:25:44;;;;;;;18.00;12.05;;;;;;;5.34;100.00;100997.19;5020286;28;20040;-65
2022/03/04 10:28:10;;;;;;;18.13;11.55;;;;;;;5.38;100.00;100994.47;5019079;28;20025;-65
2022/03/04 10:30:35;;;;;;;23.75;11.95;;;;;;;5.44;100.00;100985.69;5014860;28;20088;-65
2022/03/04 10:33:05;;;;;;;17.90;12.52;;;;;;;5.60;100.00;100984.47;5013143;28;20885;-65
2022/03/04 10:35:31;;;;;;;21.80;12.68;;;;;;;5.80;100.00;100982.31;5014222;28;20025;-65
2022/03/04 10:37:56;;;;;;;20.95;13.15;;;;;;;5.96;100.00;100985.47;5018894;28;20029;-65
2022/03/04 10:40:23;;;;;;;20.08;12.70;;;;;;;6.04;100.00;100986.19;5019167;28;20112;-65
2022/03/04 10:43:23;;;;;;;15.40;10.70;;;;;;;6.32;100.00;100984.63;5021581;28;20025;-66
2022/03/04 10:45:58;;;;;;;23.70;11.18;;;;;;;6.45;100.00;100987.84;5022650;28;20033;-65
2022/03/04 10:48:24;;;;;;;19.02;11.35;;;;;;;6.47;100.00;100989.50;5026242;28;20025;-65
2022/03/04 10:50:54;;;;;;;18.05;10.80;;;;;;;6.59;100.00;100989.19;5020197;28;20087;-65
2022/03/04 10:53:28;;;;;;;14.02;11.02;;;;;;;6.75;100.00;100979.25;5026380;28;20025;-65
2022/03/04 10:56:05;;;;;;;21.83;11.68;;;;;;;6.84;97.83;100984.22;5020189;28;20849;-65
2022/03/04 10:58:35;;;;;;;15.05;10.55;;;;;;;6.88;99.52;100980.66;5022187;28;20148;-65
2022/03/04 11:01:09;;;;;;;29.85;11.13;;;;;;;6.96;98.65;100989.13;5020596;28;20498;-65